createdAt,value
2023-04-30T00:00:30.114Z,11.50
2023-04-30T00:02:57.660Z,11.50
2023-04-30T00:05:25.340Z,11.50
2023-04-30T00:07:52.559Z,11.40
2023-04-30T00:10:19.798Z,11.40
2023-04-30T00:12:47.068Z,11.40
2023-04-30T00:15:14.399Z,11.40
2023-04-30T00:17:41.721Z,11.40
2023-04-30T00:20:09.309Z,11.40
2023-04-30T00:22:36.466Z,11.40
2023-04-30T00:25:03.763Z,11.30
2023-04-30T00:27:31.844Z,11.30
2023-04-30T00:29:59.179Z,11.30
2023-04-30T00:32:26.526Z,11.30
2023-04-30T00:34:53.807Z,11.30
2023-04-30T00:37:21.047Z,11.20
2023-04-30T00:39:48.374Z,11.30
2023-04-30T00:42:15.609Z,11.30
2023-04-30T00:44:42.833Z,11.30
2023-04-30T00:47:10.659Z,11.20
2023-04-30T00:49:37.924Z,11.20
2023-04-30T00:52:05.833Z,11.20
2023-04-30T00:54:33.057Z,11.20
2023-04-30T00:57:00.534Z,11.20
2023-04-30T00:59:29.294Z,11.20
2023-04-30T01:01:56.689Z,11.20
2023-04-30T01:04:24.466Z,11.20
2023-04-30T01:06:52.018Z,11.20
2023-04-30T01:09:19.386Z,11.20
2023-04-30T01:12:20.274Z,11.20
2023-04-30T01:15:05.991Z,11.10
2023-04-30T01:17:53.017Z,11.10
2023-04-30T01:20:20.648Z,11.10
2023-04-30T01:22:58.597Z,11.00
2023-04-30T01:25:54.614Z,11.10
2023-04-30T01:28:24.711Z,11.00
2023-04-30T01:30:52.905Z,11.00
2023-04-30T01:33:20.337Z,11.00
2023-04-30T01:35:59.875Z,11.00
2023-04-30T01:38:54.977Z,10.90
2023-04-30T01:41:47.961Z,10.90
2023-04-30T01:44:39.404Z,10.90
2023-04-30T01:47:12.780Z,10.90
2023-04-30T01:49:57.815Z,10.90
2023-04-30T01:52:39.240Z,10.80
2023-04-30T01:55:18.175Z,10.80
2023-04-30T01:58:03.455Z,10.90
2023-04-30T02:00:30.943Z,10.80
2023-04-30T02:02:58.928Z,10.80
2023-04-30T02:05:26.306Z,10.80
2023-04-30T02:07:53.579Z,10.70
2023-04-30T02:10:26.388Z,10.80
2023-04-30T02:12:54.137Z,10.80
2023-04-30T02:15:21.426Z,10.70
2023-04-30T02:17:48.770Z,10.70
2023-04-30T02:20:16.033Z,10.70
2023-04-30T02:22:43.397Z,10.70
2023-04-30T02:25:12.480Z,10.70
2023-04-30T02:27:40.338Z,10.70
2023-04-30T02:30:08.102Z,10.70
2023-04-30T02:32:35.450Z,10.70
2023-04-30T02:35:02.672Z,10.60
2023-04-30T02:37:29.889Z,10.60
2023-04-30T02:39:57.331Z,10.60
2023-04-30T02:42:26.034Z,10.60
2023-04-30T02:44:53.337Z,10.60
2023-04-30T02:47:20.569Z,10.60
2023-04-30T02:49:47.784Z,10.60
2023-04-30T02:52:14.974Z,10.60
2023-04-30T02:54:42.832Z,10.50
2023-04-30T02:57:10.140Z,10.50
2023-04-30T02:59:38.674Z,10.50
2023-04-30T03:02:06.053Z,10.50
2023-04-30T03:04:33.296Z,10.50
2023-04-30T03:07:00.637Z,10.50
2023-04-30T03:09:28.065Z,10.40
2023-04-30T03:11:55.244Z,10.40
2023-04-30T03:14:22.487Z,10.40
2023-04-30T03:16:49.855Z,10.40
2023-04-30T03:19:17.528Z,10.40
2023-04-30T03:21:44.901Z,10.30
2023-04-30T03:24:12.097Z,10.30
2023-04-30T03:26:40.784Z,10.30
2023-04-30T03:29:08.052Z,10.30
2023-04-30T03:31:35.349Z,10.30
2023-04-30T03:34:02.597Z,10.30
2023-04-30T03:36:29.860Z,10.30
2023-04-30T03:38:57.053Z,10.30
2023-04-30T03:41:24.212Z,10.30
2023-04-30T03:43:51.459Z,10.30
2023-04-30T03:46:18.737Z,10.30
2023-04-30T03:48:46.171Z,10.20
2023-04-30T03:51:13.304Z,10.20
2023-04-30T03:53:40.578Z,10.10
2023-04-30T03:56:08.154Z,10.10
2023-04-30T03:58:35.376Z,10.00
2023-04-30T04:01:03.701Z,10.00
2023-04-30T04:03:31.387Z,9.90
2023-04-30T04:05:59.016Z,9.90
2023-04-30T04:08:26.445Z,9.90
2023-04-30T04:10:54.539Z,9.90
2023-04-30T04:13:21.807Z,9.90
2023-04-30T04:15:49.109Z,9.90
2023-04-30T04:18:16.454Z,9.80
2023-04-30T04:20:43.652Z,9.80
2023-04-30T04:23:11.213Z,9.80
2023-04-30T04:25:39.413Z,9.80
2023-04-30T04:28:06.690Z,9.80
2023-04-30T04:30:34.485Z,9.80
2023-04-30T04:33:01.879Z,9.80
2023-04-30T04:35:29.661Z,9.80
2023-04-30T04:37:56.816Z,9.90
2023-04-30T04:40:24.010Z,9.90
2023-04-30T04:42:53.964Z,9.90
2023-04-30T04:45:21.654Z,10.00
2023-04-30T04:47:50.907Z,10.00
2023-04-30T04:50:18.395Z,10.00
2023-04-30T04:52:45.681Z,10.10
2023-04-30T04:55:13.313Z,10.10
2023-04-30T04:57:41.919Z,10.20
2023-04-30T05:00:10.333Z,10.30
2023-04-30T05:02:37.578Z,10.40
2023-04-30T05:05:05.186Z,10.40
2023-04-30T05:07:32.717Z,10.50
2023-04-30T05:09:59.906Z,10.50
2023-04-30T05:12:27.075Z,10.50
2023-04-30T05:14:54.290Z,10.50
2023-04-30T05:17:21.542Z,10.60
2023-04-30T05:19:50.577Z,10.70
2023-04-30T05:22:17.816Z,10.80
2023-04-30T05:24:45.138Z,10.80
2023-04-30T05:27:12.408Z,10.90
2023-04-30T05:29:39.595Z,10.90
2023-04-30T05:32:08.050Z,11.00
2023-04-30T05:34:35.501Z,11.10
2023-04-30T05:37:03.729Z,11.20
2023-04-30T05:39:30.962Z,11.30
2023-04-30T05:42:02.061Z,11.40
2023-04-30T05:44:30.412Z,11.40
2023-04-30T05:46:57.689Z,11.50
2023-04-30T05:49:25.102Z,11.60
2023-04-30T05:51:52.259Z,11.70
2023-04-30T05:54:21.795Z,11.80
2023-04-30T05:56:51.080Z,11.80
2023-04-30T05:59:18.504Z,11.90
2023-04-30T06:01:45.763Z,12.00
2023-04-30T06:04:13.174Z,12.10
2023-04-30T06:06:40.457Z,12.20
2023-04-30T06:09:07.734Z,12.30
2023-04-30T06:11:35.124Z,12.40
2023-04-30T06:14:02.286Z,12.40
2023-04-30T06:16:29.683Z,12.60
2023-04-30T06:18:56.929Z,12.60
2023-04-30T06:21:27.199Z,12.70
2023-04-30T06:23:54.443Z,12.80
2023-04-30T06:26:21.677Z,12.80
2023-04-30T06:28:48.982Z,12.90
2023-04-30T06:31:16.249Z,12.90
2023-04-30T06:33:45.128Z,13.00
2023-04-30T06:36:12.407Z,13.10
2023-04-30T06:38:40.432Z,13.20
2023-04-30T06:41:07.660Z,13.30
2023-04-30T06:43:34.949Z,13.40
2023-04-30T06:46:02.157Z,13.50
2023-04-30T06:48:29.396Z,13.60
2023-04-30T06:50:57.062Z,13.60
2023-04-30T06:53:24.223Z,13.70
2023-04-30T06:55:51.491Z,13.70
2023-04-30T06:58:19.817Z,13.80
2023-04-30T07:00:47.117Z,13.80
2023-04-30T07:03:14.684Z,13.90
2023-04-30T07:05:42.174Z,13.90
2023-04-30T07:08:09.396Z,13.90
2023-04-30T07:10:36.884Z,13.90
2023-04-30T07:13:04.083Z,14.00
2023-04-30T07:15:31.252Z,14.10
2023-04-30T07:17:58.497Z,14.20
2023-04-30T07:20:25.817Z,14.20
2023-04-30T07:22:54.516Z,14.30
2023-04-30T07:25:21.802Z,14.30
2023-04-30T07:27:51.114Z,14.30
2023-04-30T07:30:18.401Z,14.40
2023-04-30T07:32:45.653Z,14.50
2023-04-30T07:35:13.761Z,14.60
2023-04-30T07:37:41.664Z,14.70
2023-04-30T07:40:15.350Z,14.80
2023-04-30T07:42:46.570Z,14.90
2023-04-30T07:45:13.967Z,15.00
2023-04-30T07:47:41.276Z,15.10
2023-04-30T07:50:08.767Z,15.20
2023-04-30T07:52:36.206Z,15.30
2023-04-30T07:55:03.515Z,15.50
2023-04-30T07:57:30.694Z,15.60
2023-04-30T07:59:58.036Z,15.70
2023-04-30T08:02:25.634Z,15.70
2023-04-30T08:04:53.028Z,15.80
2023-04-30T08:07:21.050Z,15.90
2023-04-30T08:09:48.264Z,16.10
2023-04-30T08:12:16.984Z,16.20
2023-04-30T08:14:44.179Z,16.30
2023-04-30T08:17:13.845Z,16.40
2023-04-30T08:19:41.027Z,16.40
2023-04-30T08:22:08.287Z,16.50
2023-04-30T08:24:35.471Z,16.60
2023-04-30T08:27:03.878Z,16.70
2023-04-30T08:29:31.090Z,16.80
2023-04-30T08:32:02.843Z,16.90
2023-04-30T08:34:30.119Z,17.00
2023-04-30T08:36:57.274Z,17.00
2023-04-30T08:39:25.315Z,17.20
2023-04-30T08:41:56.554Z,17.30
2023-04-30T08:44:24.165Z,17.50
2023-04-30T08:46:55.736Z,17.60
2023-04-30T08:49:24.712Z,17.60
2023-04-30T08:51:52.924Z,17.70
2023-04-30T08:54:20.987Z,17.80
2023-04-30T08:56:48.431Z,18.00
2023-04-30T08:59:16.100Z,18.20
2023-04-30T09:01:43.794Z,19.30
2023-04-30T09:04:11.700Z,21.40
2023-04-30T09:06:39.190Z,23.60
2023-04-30T09:09:15.011Z,26.10
2023-04-30T09:11:42.821Z,28.60
2023-04-30T09:14:10.176Z,30.40
2023-04-30T09:16:52.690Z,32.20
2023-04-30T09:19:27.885Z,34.10
2023-04-30T09:21:55.521Z,35.20
2023-04-30T09:24:23.875Z,35.80
2023-04-30T09:26:51.492Z,36.60
2023-04-30T09:29:18.688Z,37.30
2023-04-30T09:31:47.537Z,38.00
2023-04-30T09:34:15.333Z,38.80
2023-04-30T09:36:54.716Z,39.40
2023-04-30T09:39:22.324Z,40.10
2023-04-30T09:41:52.159Z,40.70
2023-04-30T09:44:37.907Z,41.10
2023-04-30T09:47:16.086Z,41.60
2023-04-30T09:49:52.750Z,42.00
2023-04-30T09:52:20.897Z,42.50
2023-04-30T09:54:48.278Z,42.60
2023-04-30T09:57:16.586Z,42.70
2023-04-30T09:59:46.097Z,42.70
2023-04-30T10:02:16.422Z,42.60
2023-04-30T10:04:45.461Z,42.30
2023-04-30T10:07:17.064Z,42.40
2023-04-30T10:10:03.377Z,42.50
2023-04-30T10:12:40.624Z,41.80
2023-04-30T10:15:30.857Z,41.30
2023-04-30T10:18:02.453Z,41.40
2023-04-30T10:20:32.041Z,41.70
2023-04-30T10:23:00.656Z,41.60
2023-04-30T10:25:28.823Z,41.60
2023-04-30T10:27:56.543Z,42.30
2023-04-30T10:30:24.170Z,42.90
2023-04-30T10:33:21.900Z,43.10
2023-04-30T10:35:59.258Z,42.90
2023-04-30T10:38:31.938Z,43.20
2023-04-30T10:41:03.554Z,42.80
2023-04-30T10:43:31.621Z,42.90
2023-04-30T10:45:59.220Z,43.30
2023-04-30T10:48:27.206Z,43.50
2023-04-30T10:50:59.374Z,43.60
2023-04-30T10:53:30.197Z,43.50
2023-04-30T10:56:11.394Z,43.10
2023-04-30T10:58:39.932Z,42.90
2023-04-30T11:01:17.462Z,43.30
2023-04-30T11:04:06.627Z,43.70
2023-04-30T11:06:55.510Z,44.20
2023-04-30T11:09:44.368Z,45.30
2023-04-30T11:12:15.676Z,45.90
2023-04-30T11:14:45.524Z,46.00
2023-04-30T11:17:22.433Z,46.00
2023-04-30T11:19:54.566Z,46.30
2023-04-30T11:22:24.467Z,46.50
2023-04-30T11:25:00.526Z,46.60
2023-04-30T11:27:29.254Z,46.80
2023-04-30T11:29:58.089Z,47.20
2023-04-30T11:32:32.120Z,47.30
2023-04-30T11:35:00.223Z,46.90
2023-04-30T11:37:39.490Z,46.20
2023-04-30T11:40:10.837Z,45.90
2023-04-30T11:42:40.088Z,45.90
2023-04-30T11:45:08.974Z,45.70
2023-04-30T11:47:44.024Z,45.50
2023-04-30T11:50:13.816Z,45.40
2023-04-30T11:52:42.007Z,45.40
2023-04-30T11:55:17.188Z,45.60
2023-04-30T11:57:50.063Z,46.00
2023-04-30T12:00:19.563Z,46.00
2023-04-30T12:02:49.129Z,45.70
2023-04-30T12:05:20.733Z,45.10
2023-04-30T12:07:49.887Z,44.50
2023-04-30T12:10:19.234Z,43.80
2023-04-30T12:12:49.263Z,43.60
2023-04-30T12:15:29.007Z,43.80
2023-04-30T12:17:58.323Z,44.00
2023-04-30T12:20:28.690Z,44.10
2023-04-30T12:22:56.245Z,43.90
2023-04-30T12:25:23.751Z,43.80
2023-04-30T12:27:53.154Z,43.60
2023-04-30T12:30:22.220Z,43.40
2023-04-30T12:32:52.103Z,43.30
2023-04-30T12:35:21.580Z,43.40
2023-04-30T12:38:01.850Z,43.50
2023-04-30T12:40:29.036Z,43.50
2023-04-30T12:43:07.320Z,43.20
2023-04-30T12:45:51.696Z,43.20
2023-04-30T12:48:26.204Z,43.40
2023-04-30T12:50:57.234Z,43.10
2023-04-30T12:53:24.752Z,42.90
2023-04-30T12:56:16.286Z,42.40
2023-04-30T12:58:45.675Z,42.00
2023-04-30T13:01:13.670Z,41.80
2023-04-30T13:03:41.205Z,41.70
2023-04-30T13:06:10.445Z,41.60
2023-04-30T13:08:46.399Z,41.50
2023-04-30T13:11:26.251Z,41.60
2023-04-30T13:13:57.016Z,41.80
2023-04-30T13:16:24.906Z,41.60
2023-04-30T13:18:52.591Z,41.20
2023-04-30T13:21:20.565Z,41.10
2023-04-30T13:23:53.069Z,41.10
2023-04-30T13:26:23.193Z,41.10
2023-04-30T13:28:50.762Z,40.80
2023-04-30T13:31:18.432Z,40.30
2023-04-30T13:33:46.013Z,40.00
2023-04-30T13:36:13.315Z,39.80
2023-04-30T13:38:41.570Z,39.30
2023-04-30T13:41:08.733Z,39.00
2023-04-30T13:43:40.519Z,39.00
2023-04-30T13:46:09.447Z,39.00
2023-04-30T13:48:36.749Z,38.90
2023-04-30T13:51:04.206Z,38.50
2023-04-30T13:53:31.458Z,38.00
2023-04-30T13:55:59.388Z,37.40
2023-04-30T13:58:27.198Z,37.10
2023-04-30T14:00:54.885Z,36.80
2023-04-30T14:03:22.333Z,36.40
2023-04-30T14:05:49.720Z,36.20
2023-04-30T14:08:16.931Z,36.10
2023-04-30T14:10:44.164Z,35.80
2023-04-30T14:13:11.473Z,35.60
2023-04-30T14:15:38.945Z,35.30
2023-04-30T14:18:06.397Z,35.20
2023-04-30T14:20:33.743Z,35.30
2023-04-30T14:23:02.731Z,35.40
2023-04-30T14:25:30.154Z,35.40
2023-04-30T14:27:57.330Z,35.30
2023-04-30T14:30:24.578Z,34.90
2023-04-30T14:32:51.820Z,34.50
2023-04-30T14:35:19.050Z,34.30
2023-04-30T14:37:46.423Z,34.10
2023-04-30T14:40:14.696Z,34.10
2023-04-30T14:42:42.541Z,34.10
2023-04-30T14:45:10.218Z,34.20
2023-04-30T14:47:37.684Z,34.30
2023-04-30T14:50:05.298Z,34.30
2023-04-30T14:52:32.606Z,34.30
2023-04-30T14:54:59.808Z,34.20
2023-04-30T14:57:27.702Z,34.40
2023-04-30T14:59:57.582Z,34.60
2023-04-30T15:02:25.014Z,34.70
2023-04-30T15:04:52.308Z,34.50
2023-04-30T15:07:20.772Z,34.30
2023-04-30T15:09:47.950Z,34.20
2023-04-30T15:12:15.108Z,34.00
2023-04-30T15:14:42.317Z,33.90
2023-04-30T15:17:09.755Z,34.20
2023-04-30T15:19:37.106Z,34.50
2023-04-30T15:22:04.322Z,34.50
2023-04-30T15:24:31.477Z,34.30
2023-04-30T15:26:58.848Z,34.10
2023-04-30T15:29:26.099Z,33.80
2023-04-30T15:31:54.316Z,33.60
2023-04-30T15:34:22.671Z,33.60
2023-04-30T15:36:50.231Z,33.60
2023-04-30T15:39:17.871Z,33.50
2023-04-30T15:41:45.372Z,33.50
2023-04-30T15:44:12.619Z,33.50
2023-04-30T15:46:39.929Z,33.40
2023-04-30T15:49:07.174Z,33.20
2023-04-30T15:51:36.180Z,33.20
2023-04-30T15:54:03.502Z,33.10
2023-04-30T15:59:00.865Z,32.50
2023-04-30T16:01:28.193Z,32.30
2023-04-30T16:03:55.867Z,32.20
2023-04-30T16:06:23.498Z,32.00
2023-04-30T16:08:50.940Z,31.80
2023-04-30T16:11:19.637Z,31.60
2023-04-30T16:13:47.203Z,31.50
2023-04-30T16:16:14.548Z,31.20
2023-04-30T16:18:41.974Z,30.90
2023-04-30T16:21:10.070Z,30.70
2023-04-30T16:23:37.904Z,30.50
2023-04-30T16:26:05.425Z,30.10
2023-04-30T16:28:32.651Z,29.80
2023-04-30T16:31:00.328Z,29.50
2023-04-30T16:33:27.591Z,29.30
2023-04-30T16:35:55.197Z,29.10
2023-04-30T16:38:22.967Z,29.10
2023-04-30T16:40:50.819Z,29.00
2023-04-30T16:43:17.986Z,28.70
2023-04-30T16:45:46.057Z,28.50
2023-04-30T16:48:13.429Z,28.20
2023-04-30T16:50:40.652Z,28.00
2023-04-30T16:53:10.369Z,27.70
2023-04-30T16:55:38.225Z,27.50
2023-04-30T16:58:05.440Z,27.40
2023-04-30T17:00:34.382Z,27.30
2023-04-30T17:03:01.701Z,27.20
2023-04-30T17:05:29.500Z,27.20
2023-04-30T17:07:57.869Z,27.20
2023-04-30T17:10:25.574Z,27.20
2023-04-30T17:12:52.797Z,27.10
2023-04-30T17:15:20.228Z,27.00
2023-04-30T17:17:47.542Z,26.80
2023-04-30T17:20:14.775Z,26.60
2023-04-30T17:22:42.040Z,26.40
2023-04-30T17:25:09.898Z,26.20
2023-04-30T17:27:37.519Z,25.90
2023-04-30T17:30:05.197Z,25.60
2023-04-30T17:32:32.725Z,25.20
2023-04-30T17:35:01.500Z,24.70
2023-04-30T17:37:28.803Z,24.20
2023-04-30T17:39:56.233Z,23.90
2023-04-30T17:42:23.869Z,23.50
2023-04-30T17:44:51.010Z,23.00
2023-04-30T17:47:18.991Z,22.70
2023-04-30T17:49:46.157Z,22.30
2023-04-30T17:52:13.390Z,22.00
2023-04-30T17:54:40.777Z,21.70
2023-04-30T17:57:07.976Z,21.40
2023-04-30T17:59:35.648Z,21.10
2023-04-30T18:02:05.481Z,20.90
2023-04-30T18:04:32.867Z,20.70
2023-04-30T18:07:00.072Z,20.50
2023-04-30T18:09:27.305Z,20.20
2023-04-30T18:11:55.329Z,20.00
2023-04-30T18:14:22.547Z,19.80
2023-04-30T18:16:49.971Z,19.70
2023-04-30T18:19:18.880Z,19.40
2023-04-30T18:21:46.105Z,19.20
2023-04-30T18:24:13.462Z,19.00
2023-04-30T18:26:40.664Z,18.80
2023-04-30T18:29:07.942Z,18.70
2023-04-30T18:31:36.755Z,18.50
2023-04-30T18:34:04.030Z,18.30
2023-04-30T18:36:31.291Z,18.10
2023-04-30T18:38:58.539Z,18.00
2023-04-30T18:41:27.038Z,17.90
2023-04-30T18:43:54.322Z,17.80
2023-04-30T18:46:22.970Z,17.60
2023-04-30T18:48:52.388Z,17.50
2023-04-30T18:51:19.621Z,17.30
2023-04-30T18:53:47.628Z,17.20
2023-04-30T18:56:15.748Z,17.10
2023-04-30T18:58:47.623Z,17.00
2023-04-30T19:01:14.869Z,16.90
2023-04-30T19:03:42.263Z,16.80
2023-04-30T19:06:09.847Z,16.80
2023-04-30T19:08:37.029Z,16.70
2023-04-30T19:11:04.202Z,16.60
2023-04-30T19:13:31.572Z,16.60
2023-04-30T19:15:58.920Z,15.60
2023-04-30T19:18:26.233Z,16.50
2023-04-30T19:21:01.935Z,16.40
2023-04-30T19:23:30.797Z,16.30
2023-04-30T19:25:59.138Z,16.30
2023-04-30T19:28:26.404Z,16.20
2023-04-30T19:30:57.233Z,16.20
2023-04-30T19:33:25.299Z,16.20
2023-04-30T19:35:53.502Z,16.10
2023-04-30T19:38:21.546Z,16.10
2023-04-30T19:40:50.058Z,16.00
2023-04-30T19:43:17.957Z,16.10
2023-04-30T19:45:55.028Z,15.90
2023-04-30T19:48:23.439Z,15.90
2023-04-30T19:50:53.281Z,15.90
2023-04-30T19:53:21.678Z,15.90
2023-04-30T19:55:48.975Z,15.80
2023-04-30T19:58:16.202Z,15.80
2023-04-30T20:00:45.056Z,15.80
2023-04-30T20:03:13.651Z,15.80
2023-04-30T20:05:40.986Z,15.70
2023-04-30T20:08:08.729Z,15.70
2023-04-30T20:10:38.117Z,15.70
2023-04-30T20:13:09.314Z,15.70
2023-04-30T20:15:36.774Z,15.70
2023-04-30T20:18:05.793Z,15.70
2023-04-30T20:20:33.077Z,15.60
2023-04-30T20:23:11.564Z,15.60
2023-04-30T20:25:39.360Z,15.60
2023-04-30T20:28:07.028Z,15.50
2023-04-30T20:30:35.148Z,15.50
2023-04-30T20:33:03.783Z,15.40
2023-04-30T20:35:31.496Z,15.40
2023-04-30T20:37:58.799Z,15.40
2023-04-30T20:40:26.920Z,15.30
2023-04-30T20:42:54.822Z,15.30
2023-04-30T20:45:23.115Z,15.30
2023-04-30T20:47:50.366Z,15.30
2023-04-30T20:50:17.753Z,15.20
2023-04-30T20:52:45.024Z,15.20
2023-04-30T20:55:12.238Z,15.20
2023-04-30T20:57:39.666Z,15.10
2023-04-30T21:00:07.610Z,15.10
2023-04-30T21:02:34.902Z,15.10
2023-04-30T21:05:04.494Z,15.00
2023-04-30T21:07:34.230Z,15.00
2023-04-30T21:10:02.181Z,14.90
2023-04-30T21:12:29.643Z,14.90
2023-04-30T21:14:57.767Z,14.90
2023-04-30T21:17:24.984Z,14.90
2023-04-30T21:19:52.392Z,14.90
2023-04-30T21:22:19.576Z,14.80
2023-04-30T21:24:46.807Z,14.80
2023-04-30T21:27:14.013Z,14.90
2023-04-30T21:29:44.181Z,14.90
2023-04-30T21:32:11.457Z,14.90
2023-04-30T21:34:38.770Z,14.90
2023-04-30T21:37:05.941Z,14.90
2023-04-30T21:39:33.158Z,14.90
2023-04-30T21:42:00.489Z,14.90
2023-04-30T21:44:32.202Z,14.90
2023-04-30T21:46:59.950Z,14.90
2023-04-30T21:49:27.573Z,14.90
2023-04-30T21:51:54.903Z,14.90
2023-04-30T21:54:22.191Z,14.90
2023-04-30T21:56:49.373Z,14.90
2023-04-30T21:59:16.554Z,14.80
2023-04-30T22:01:43.756Z,14.90
2023-04-30T22:04:11.057Z,14.80
2023-04-30T22:06:38.423Z,14.80
2023-04-30T22:09:06.198Z,14.80
2023-04-30T22:11:33.437Z,14.80
2023-04-30T22:14:00.650Z,14.80
2023-04-30T22:16:27.972Z,14.80
2023-04-30T22:18:57.395Z,14.80
2023-04-30T22:21:26.127Z,14.80
2023-04-30T22:23:53.398Z,14.80
2023-04-30T22:26:22.647Z,14.80
2023-04-30T22:28:50.849Z,14.80
2023-04-30T22:31:18.651Z,14.80
2023-04-30T22:33:46.472Z,14.80
2023-04-30T22:36:13.750Z,14.80
2023-04-30T22:38:41.038Z,14.70
2023-04-30T22:41:08.463Z,14.70
2023-04-30T22:43:36.016Z,14.70
2023-04-30T22:46:03.386Z,14.80
2023-04-30T22:48:30.769Z,14.70
2023-04-30T22:50:58.637Z,14.70
2023-04-30T22:53:26.217Z,14.70
2023-04-30T22:55:55.334Z,14.70
2023-04-30T22:58:22.590Z,14.60
2023-04-30T23:00:49.913Z,14.60
2023-04-30T23:03:17.559Z,14.60
2023-04-30T23:05:44.981Z,14.60
2023-04-30T23:08:12.537Z,14.60
2023-04-30T23:10:43.260Z,14.60
2023-04-30T23:13:10.500Z,14.60
2023-04-30T23:15:37.702Z,14.60
2023-04-30T23:18:06.410Z,14.60
2023-04-30T23:20:33.660Z,14.60
2023-04-30T23:23:00.866Z,14.60
2023-04-30T23:25:28.150Z,14.50
2023-04-30T23:27:55.488Z,14.60
2023-04-30T23:30:23.543Z,14.50
2023-04-30T23:32:50.846Z,14.60
2023-04-30T23:35:18.207Z,14.50
2023-04-30T23:37:45.636Z,14.40
2023-04-30T23:40:13.094Z,14.40
2023-04-30T23:42:40.334Z,14.50
2023-04-30T23:45:08.570Z,14.40
2023-04-30T23:47:36.694Z,14.40
2023-04-30T23:50:04.936Z,14.40
2023-04-30T23:52:32.226Z,14.40
2023-04-30T23:54:59.872Z,14.30
2023-04-30T23:57:28.009Z,14.30
2023-04-30T23:59:55.956Z,14.30
